Marshall, Washington
Current Conditions -  °F | °C
As of 3:53 AM on Saturday 25 Oct 2014 (Local Time) from KGEG Reporting Station
Overcast Overcast  
Wind Chill: 41°   Ceiling: 24000
Heat Index: 46°   Visibility: 10mi
Dew Point: 42°   Wind: 9mph
Humidity: 86%   Direction: 50°NE
Pressure: 29.8"   Gusts: NA
Location:  47.56°N, 117.5°W
Report Text: KGEG 251053Z 05008KT 10SM OVC240 08/06 A2980 RMK AO2 SLP093 T00780056
Loading
Personal Weather Stations






























Interactive Weather Map
Tropical Storm Tracking
New forecast layout! Learn more

10-Day Weather Forecast

Advertisements
Track Severe Weather on mobile